Home PIREPS Pireps

Flight BEL3731

  • Submitted By: Johan Willems
  • Departure Airport: Bruxelles National (EBBR)
  • Arrival Airport: Madrid / Barajas (LEMD)
  • Aircraft: A320-214 (OO-SNA)
  • Flight Time: 02.13
  • Date Submitted: 10/04/2015
  • Status: Accepted
Flight Details
Gross Revenue:
(140 load / € 178.00 per unit
€ 24,920.00
Fuel Cost:
(4288 fuel used @ 5.1 / unit)
€ 21,868.80

Additional Log Information:

View Log

Aircraft Used in flight is Airbus A320 NEO Vueling EC-LUO
08:56 Brakes are On
08:58 Brakes are Released
09:02 In Air Refuel Suspected
09:04 You Took off @ 146 Knots and Flaps at Position 3
Departure Weather
EBBR 100650Z 05001KT 3800 BR NSC 08/07 Q1022 BECMG 5000 BRrn
09:04 Landing Gear Up @ 157 Knots and 240 Feet
09:05 Below FL100 you need to turn on the landing lights
09:05 Below 10000 feet you are not allowed to go over 250 knots
09:06 You exceeded maximum bank angle
10:59 Landing Gear Down @ 154 Knots and 3980 Feet
11:02 You Landed @ 133 Knots and with -150 Vertical Speed
Arrival Weather
LEMD 100830Z 17004KT 120V260 9999 BKN019 09/06 Q1024 NOSIGrn
11:08 Brakes are On
11:09 Brussels Bel-Track1.0.0.9

Route Map

Corporate About Us Our Team Vacancies Information Fleet Route Network Rules and Regulations Operations Flight Schedules Event Center Tours Partners IVAO Vatsim Acars dev FSCB

fb Users Online No pilots online!
0 Pilot(s) and 87 Guest(s) Online
CMS by phpVMS - Design by Crazycreatives.com - Copyright © 2018 - Brussels Airlines Virtual